Don Pasquale — 9V9826 — position and weather

sailwx.info

Track history (hours):
 
Tides and Currents Weather Stations Pressure Air Temp Water Temp Dewpoint Dewpoint Depression Visibility Wind Speed Wind Dir Waves Ship Positions

Don Pasquale

Last reported at 2018-Jun-19 07:37 UTC. Time now 2018-Jun-22 11:06 UTC.
Position N 36°43' E 000°53'.

Length 227 m; draft 9.8 m.

Type: Cargo ship. MMSI: 566654000.

Date/timePositionNaut miles runAvg speedWind from/ knotsBaromVisibWave heightAir tempDewpointWater temp
2018-Jun-19 07:37N 36°43' E 000°53'316.1
2018-Jun-19 07:27N 36°43' E 000°50'816.3
2018-Jun-19 06:58N 36°42' E 000°40'1216.4
2018-Jun-19 06:15N 36°40' E 000°26'4515.6
2018-Jun-19 03:22N 36°33' W 000°30'715.9
2018-Jun-19 02:55N 36°32' W 000°39'716.1
2018-Jun-19 02:29N 36°32' W 000°47'1216.0
2018-Jun-19 01:46N 36°30' W 001°02'816.1
2018-Jun-19 01:15N 36°29' W 001°12'19616.9
2018-Jun-18 13:42N 35°60' W 005°11'417.6
2018-Jun-18 13:30N 35°59' W 005°16'917.1
2018-Jun-18 13:00N 35°57' W 005°26'10916.5
2018-Jun-18 06:26N 36°12' W 007°39'1016.7
2018-Jun-18 05:49N 36°14' W 007°52'516.7
2018-Jun-18 05:30N 36°15' W 007°58'816.6
2018-Jun-18 05:00N 36°18' W 008°08'816.8
2018-Jun-18 04:30N 36°21' W 008°18'817.2
2018-Jun-18 04:00N 36°23' W 008°28'917.5
2018-Jun-18 03:30N 36°25' W 008°39'917.4
2018-Jun-18 02:59N 36°27' W 008°49'817.2
2018-Jun-18 02:30N 36°29' W 008°59'917.3
2018-Jun-18 02:00N 36°31' W 009°10'1616.8
2018-Jun-18 01:03N 36°40' W 009°26'117.7
2018-Jun-18 01:00N 36°41' W 009°27'1017.4
2018-Jun-18 00:26N 36°49' W 009°34'817.9
2018-Jun-18 00:00N 36°56' W 009°37'1017.7
2018-Jun-17 23:26N 37°06' W 009°40'817.9
2018-Jun-17 23:00N 37°13' W 009°42'917.6
2018-Jun-17 22:30N 37°22' W 009°44'917.6
2018-Jun-17 22:00N 37°31' W 009°46'917.5
2018-Jun-17 21:30N 37°39' W 009°49'917.6
2018-Jun-17 21:00N 37°48' W 009°51'917.4
2018-Jun-17 20:30N 37°56' W 009°53'917.5
2018-Jun-17 20:01N 38°05' W 009°55'917.3
2018-Jun-17 19:30N 38°13' W 009°58'917.5
2018-Jun-17 19:00N 38°22' W 010°00'917.4
2018-Jun-17 18:30N 38°30' W 010°03'917.6
2018-Jun-17 18:00N 38°39' W 010°05'917.5
2018-Jun-17 17:30N 38°48' W 010°06'917.5
2018-Jun-17 17:00N 38°56' W 010°06'917.2
2018-Jun-17 16:30N 39°05' W 010°06'917.3
2018-Jun-17 16:00N 39°14' W 010°06'917.8
2018-Jun-17 15:30N 39°23' W 010°06'917.5
2018-Jun-17 15:00N 39°31' W 010°06'3017.5
2018-Jun-17 13:17N 40°01' W 010°06'517.7
2018-Jun-17 13:00N 40°06' W 010°06'57316.9
2018-Jun-16 03:11N 49°03' W 005°25'1914.7
2018-Jun-16 01:53N 49°13' W 005°00'5817.9
2018-Jun-15 22:39N 49°41' W 003°43'816.9
2018-Jun-15 22:13N 49°45' W 003°33'416.3
2018-Jun-15 21:59N 49°47' W 003°28'715.6
2018-Jun-15 21:30N 49°51' W 003°18'1614.7
2018-Jun-15 20:24N 49°59' W 002°56'614.5
2018-Jun-15 20:00N 50°01' W 002°48'714.6
2018-Jun-15 19:30N 50°03' W 002°37'1215.1
2018-Jun-15 18:42N 50°07' W 002°19'315.7
2018-Jun-15 18:30N 50°08' W 002°15'816.3
2018-Jun-15 18:00N 50°11' W 002°03'1017.4
2018-Jun-15 17:25N 50°15' W 001°48'818.2
2018-Jun-15 17:00N 50°19' W 001°38'919.0
2018-Jun-15 16:31N 50°23' W 001°24'1019.4
2018-Jun-15 16:00N 50°27' W 001°11'918.2
2018-Jun-15 15:30N 50°33' W 000°60'817.0
2018-Jun-15 15:00N 50°41' W 000°58'611.3
2018-Jun-15 14:30N 50°45' W 001°05'612.9
2018-Jun-15 14:00N 50°46' W 001°15'4 8.9
2018-Jun-15 13:30N 50°50' W 001°19'4 8.4
2018-Jun-15 13:00N 50°53' W 001°24'0 0.4
2018-Jun-15 12:30N 50°53' W 001°24'0 0.0
2018-Jun-15 12:00N 50°53' W 001°24'0 0.0
2018-Jun-15 11:27N 50°53' W 001°24'0 0.0
2018-Jun-15 11:00N 50°53' W 001°24'0 0.0
2018-Jun-15 10:30N 50°53' W 001°24'0 0.0
2018-Jun-15 10:00N 50°53' W 001°24'0 0.0
2018-Jun-15 09:30N 50°53' W 001°24'0 0.0
2018-Jun-15 09:00N 50°53' W 001°24'0 0.0
2018-Jun-15 08:30N 50°53' W 001°24'0 0.0
2018-Jun-15 08:00N 50°53' W 001°24'0 0.0
2018-Jun-15 07:30N 50°53' W 001°24'0 0.0
2018-Jun-15 07:00N 50°53' W 001°24'0 0.0
2018-Jun-15 06:30N 50°53' W 001°24'0 0.0
2018-Jun-15 06:00N 50°53' W 001°24'0 0.0
2018-Jun-15 05:30N 50°53' W 001°24'0 0.0
2018-Jun-15 05:00N 50°53' W 001°24'0 0.0
2018-Jun-15 04:30N 50°53' W 001°24'0 0.0
2018-Jun-15 04:00N 50°53' W 001°24'0 0.0
2018-Jun-15 03:30N 50°53' W 001°24'0 0.0
2018-Jun-15 03:00N 50°53' W 001°24'0 0.0
2018-Jun-15 02:30N 50°53' W 001°24'0 0.0
2018-Jun-15 02:00N 50°53' W 001°24'0 0.0
2018-Jun-15 01:30N 50°53' W 001°24'0 0.0
2018-Jun-15 01:00N 50°53' W 001°24'0 0.0
2018-Jun-15 00:30N 50°53' W 001°24'0 0.0
2018-Jun-15 00:00N 50°53' W 001°24'0 0.0
2018-Jun-14 23:30N 50°53' W 001°24'0 0.0
2018-Jun-14 23:00N 50°53' W 001°24'0 0.0
2018-Jun-14 22:30N 50°53' W 001°24'0 0.0
2018-Jun-14 22:00N 50°53' W 001°24'0 0.0
2018-Jun-14 21:30N 50°53' W 001°24'0 0.0
2018-Jun-14 21:00N 50°53' W 001°24'0 0.0
2018-Jun-14 20:30N 50°53' W 001°24'0 0.0
2018-Jun-14 19:57N 50°53' W 001°24'0 0.0
2018-Jun-14 19:30N 50°53' W 001°24'0 0.0
2018-Jun-14 19:00N 50°53' W 001°24'0 0.0
2018-Jun-14 18:30N 50°53' W 001°24'0 0.0
2018-Jun-14 18:00N 50°53' W 001°24'0 0.0
2018-Jun-14 17:30N 50°53' W 001°24'0 0.0
2018-Jun-14 17:00N 50°53' W 001°24'0 0.0
2018-Jun-14 16:30N 50°53' W 001°24'0 0.0
2018-Jun-14 16:00N 50°53' W 001°24'0 0.0
2018-Jun-14 15:30N 50°53' W 001°24'0 0.0
2018-Jun-14 15:00N 50°53' W 001°24'0 0.0
2018-Jun-14 14:30N 50°53' W 001°24'0 0.0
2018-Jun-14 13:59N 50°53' W 001°24'0 0.0
2018-Jun-14 13:29N 50°53' W 001°24'0 0.0
2018-Jun-14 12:59N 50°53' W 001°24'0 0.0
2018-Jun-14 12:29N 50°53' W 001°24'0 0.0
2018-Jun-14 11:59N 50°53' W 001°24'0 0.0
2018-Jun-14 11:29N 50°53' W 001°24'0 0.0
2018-Jun-14 10:59N 50°53' W 001°24'0 0.0
2018-Jun-14 10:29N 50°53' W 001°24'0 0.0
2018-Jun-14 09:59N 50°53' W 001°24'0 0.0
2018-Jun-14 09:29N 50°53' W 001°24'0 0.0
2018-Jun-14 08:59N 50°53' W 001°24'0 0.0
2018-Jun-14 08:29N 50°53' W 001°24'0 0.0
2018-Jun-14 07:59N 50°53' W 001°24'0 0.0
2018-Jun-14 07:29N 50°53' W 001°24'0 0.0
2018-Jun-14 06:59N 50°53' W 001°24'0 0.0
2018-Jun-14 06:29N 50°53' W 001°24'0 0.0
2018-Jun-14 05:59N 50°53' W 001°24'0 0.0
2018-Jun-14 05:29N 50°53' W 001°24'0 0.0
2018-Jun-14 04:59N 50°53' W 001°24'0 0.0
2018-Jun-14 04:29N 50°53' W 001°24'0 0.0
2018-Jun-14 03:59N 50°53' W 001°24'0 0.0
2018-Jun-14 03:29N 50°53' W 001°24'0 0.0
2018-Jun-14 02:59N 50°53' W 001°24'0 0.0
2018-Jun-14 02:30N 50°53' W 001°24'1 1.9
2018-Jun-14 02:00N 50°52' W 001°23'4 8.3
2018-Jun-14 01:30N 50°49' W 001°18'3 6.4
2018-Jun-14 01:00N 50°47' W 001°15'5 9.6
2018-Jun-14 00:30N 50°46' W 001°08'510.8
2018-Jun-14 00:00N 50°43' W 001°00'4 9.0
2018-Jun-13 23:30N 50°39' W 000°56'4 7.7
2018-Jun-13 23:00N 50°35' W 000°58'4 8.4
2018-Jun-13 22:31N 50°31' W 000°60'2 4.3
2018-Jun-13 22:00N 50°29' W 001°01'0 0.6
2018-Jun-13 21:31N 50°29' W 001°00'2 4.4
2018-Jun-13 20:58N 50°29' W 000°56'1 3.3
2018-Jun-13 20:30N 50°29' W 000°59'1 1.3
2018-Jun-13 20:01N 50°30' W 000°59'2 4.2
2018-Jun-13 19:30N 50°30' W 000°56'2 3.5
2018-Jun-13 19:00N 50°30' W 000°59'1 2.7
2018-Jun-13 18:30N 50°29' W 001°01'1 1.8
2018-Jun-13 18:00N 50°30' W 000°60'1 2.1
2018-Jun-13 17:30N 50°30' W 000°58'1 2.4
2018-Jun-13 17:00N 50°30' W 001°00'1 1.5
2018-Jun-13 16:30N 50°30' W 001°01'0 0.6
2018-Jun-13 16:00N 50°29' W 001°01'0 0.3
2018-Jun-13 15:30N 50°29' W 001°01'0 0.5
2018-Jun-13 15:00N 50°29' W 001°01'2 4.6
2018-Jun-13 14:30N 50°30' W 000°57'814.8
2018-Jun-13 14:00N 50°30' W 000°45'917.5
2018-Jun-13 13:30N 50°31' W 000°32'917.3
2018-Jun-13 13:00N 50°32' W 000°19'816.8
2018-Jun-13 12:30N 50°33' W 000°05'816.3
2018-Jun-13 12:01N 50°34' E 000°07'815.9
2018-Jun-13 11:30N 50°36' E 000°20'815.5
2018-Jun-13 11:00N 50°38' E 000°31'714.9
2018-Jun-13 10:30N 50°41' E 000°42'714.5
2018-Jun-13 10:00N 50°45' E 000°51'714.5
2018-Jun-13 09:30N 50°50' E 001°00'714.8
2018-Jun-13 09:00N 50°55' E 001°09'815.4
2018-Jun-13 08:30N 51°00' E 001°18'817.0
2018-Jun-13 08:00N 51°05' E 001°29'918.3
2018-Jun-13 07:30N 51°10' E 001°41'918.4
2018-Jun-13 07:00N 51°17' E 001°50'917.7
2018-Jun-13 06:30N 51°24' E 001°59'815.1
2018-Jun-13 06:00N 51°22' E 002°11'815.5
2018-Jun-13 05:30N 51°22' E 002°23'916.6
2018-Jun-13 05:00N 51°23' E 002°37'713.7
2018-Jun-13 04:30N 51°22' E 002°47'816.6
2018-Jun-13 04:01N 51°24' E 003°00'917.1
2018-Jun-13 03:31N 51°25' E 003°14'917.7
2018-Jun-13 03:00N 51°25' E 003°28'612.2
2018-Jun-13 02:31N 51°26' E 003°38'612.5
2018-Jun-13 02:00N 51°22' E 003°45'714.0
2018-Jun-13 01:30N 51°23' E 003°56'4 8.3
2018-Jun-13 01:00N 51°25' E 004°02'5 9.5
2018-Jun-13 00:31N 51°23' E 004°09'4 7.9
2018-Jun-13 00:01N 51°21' E 004°15'3 6.3
2018-Jun-12 23:31N 51°18' E 004°17'2 4.6
2018-Jun-12 23:00N 51°16' E 004°18'1 1.0
2018-Jun-12 22:30N 51°16' E 004°17'0 0.0
2018-Jun-12 22:00N 51°16' E 004°17'1 2.2
2018-Jun-12 21:30N 51°16' E 004°15'1 2.2
2018-Jun-12 20:59N 51°16' E 004°13'0 0.0
2018-Jun-12 20:29N 51°16' E 004°13'0 0.0
2018-Jun-12 19:59N 51°16' E 004°13'0 0.0
2018-Jun-12 19:29N 51°16' E 004°13'0 0.0
2018-Jun-12 18:59N 51°16' E 004°13'0 0.0
2018-Jun-12 18:29N 51°16' E 004°13'0 0.0
2018-Jun-12 17:59N 51°16' E 004°13'0 0.0
2018-Jun-12 17:29N 51°16' E 004°13'0 0.0
2018-Jun-12 16:59N 51°16' E 004°13'0 0.0
2018-Jun-12 16:29N 51°16' E 004°13'0 0.0
2018-Jun-12 15:59N 51°16' E 004°13'0 0.0
2018-Jun-12 15:29N 51°16' E 004°13'0 0.0
2018-Jun-12 14:56N 51°16' E 004°13'0 0.0
2018-Jun-12 14:29N 51°16' E 004°13'0 0.0
2018-Jun-12 13:59N 51°16' E 004°13'0 0.0
2018-Jun-12 13:29N 51°16' E 004°13'0 0.0
2018-Jun-12 12:59N 51°16' E 004°13'0 0.0
2018-Jun-12 12:29N 51°16' E 004°13'0 0.0
2018-Jun-12 11:59N 51°16' E 004°13'0 0.0
2018-Jun-12 11:29N 51°16' E 004°13'0 0.0
2018-Jun-12 10:59N 51°16' E 004°13'0 0.0
2018-Jun-12 10:29N 51°16' E 004°13'0 0.0
2018-Jun-12 09:59N 51°16' E 004°13'0 0.0
2018-Jun-12 09:29N 51°16' E 004°13'0 0.0
2018-Jun-12 08:59N 51°16' E 004°13'0 0.0
2018-Jun-12 08:29N 51°16' E 004°13'0 0.0
2018-Jun-12 07:59N 51°16' E 004°13'0 0.0
2018-Jun-12 07:29N 51°16' E 004°13'0 0.0
2018-Jun-12 06:59N 51°16' E 004°13'0 0.0
2018-Jun-12 06:29N 51°16' E 004°13'0 0.0
2018-Jun-12 05:59N 51°16' E 004°13'0 0.0
2018-Jun-12 05:29N 51°16' E 004°13'0 0.0
2018-Jun-12 04:59N 51°16' E 004°13'0 0.0
2018-Jun-12 04:29N 51°16' E 004°13'0 0.0
2018-Jun-12 03:59N 51°16' E 004°13'0 0.0
2018-Jun-12 03:29N 51°16' E 004°13'0 0.0
2018-Jun-12 02:59N 51°16' E 004°13'0 0.0
2018-Jun-12 02:29N 51°16' E 004°13'0 0.0
2018-Jun-12 01:59N 51°16' E 004°13'0 0.0
2018-Jun-12 01:29N 51°16' E 004°13'0 0.0
2018-Jun-12 00:59N 51°16' E 004°13'0 0.0
2018-Jun-12 00:29N 51°16' E 004°13'0 0.0
2018-Jun-11 23:59N 51°16' E 004°13'0 0.2
2018-Jun-11 23:30N 51°16' E 004°13'2 4.0
2018-Jun-11 23:00N 51°16' E 004°16'0 0.4
2018-Jun-11 22:30N 51°16' E 004°17'1 2.4
2018-Jun-11 22:00N 51°16' E 004°18'3 6.5
2018-Jun-11 21:30N 51°19' E 004°16'5 9.8
2018-Jun-11 21:00N 51°23' E 004°13'611.0
2018-Jun-11 20:30N 51°22' E 004°04'5 9.5
2018-Jun-11 20:00N 51°25' E 003°58'713.3
2018-Jun-11 19:30N 51°21' E 003°50'612.2
2018-Jun-11 19:00N 51°24' E 003°43'5 9.4
2018-Jun-11 18:30N 51°25' E 003°35'510.6
2018-Jun-11 18:00N 51°25' E 003°27'713.0
2018-Jun-11 17:30N 51°25' E 003°16'612.9
2018-Jun-11 17:00N 51°24' E 003°06'610.9
2018-Jun-11 16:30N 51°28' E 003°00'917.4
2018-Jun-11 16:00N 51°35' E 003°09'816.1
2018-Jun-11 15:30N 51°42' E 003°12'510.6
2018-Jun-11 15:00N 51°47' E 003°15'510.0
2018-Jun-11 14:30N 51°52' E 003°18'3 6.9
2018-Jun-11 14:01N 51°55' E 003°19'4 7.2
2018-Jun-11 13:30N 51°59' E 003°20'4 7.1
2018-Jun-11 13:00N 52°03' E 003°21'4 7.7
2018-Jun-11 12:30N 52°06' E 003°25'611.5
2018-Jun-11 12:00N 52°00' E 003°24'2 4.3
2018-Jun-11 11:30N 52°02' E 003°21'713.6
2018-Jun-11 11:00N 52°08' E 003°25'714.9
2018-Jun-11 10:30N 52°15' E 003°27'815.6
2018-Jun-11 10:00N 52°23' E 003°28'816.5
2018-Jun-11 09:30N 52°31' E 003°29'816.3
2018-Jun-11 09:00N 52°39' E 003°33'917.4
2018-Jun-11 08:30N 52°46' E 003°42'917.6
2018-Jun-11 08:00N 52°52' E 003°52'917.6
2018-Jun-11 07:30N 52°59' E 004°01'1017.3
2018-Jun-11 06:56N 53°05' E 004°14'716.7
2018-Jun-11 06:29N 53°11' E 004°22'817.6
2018-Jun-11 06:00N 53°18' E 004°29'917.5
2018-Jun-11 05:28N 53°27' E 004°35'816.6
2018-Jun-11 04:59N 53°30' E 004°47'816.7
2018-Jun-11 04:31N 53°34' E 004°59'816.3
2018-Jun-11 04:01N 53°36' E 005°12'816.4
2018-Jun-11 03:30N 53°39' E 005°26'916.7
2018-Jun-11 02:59N 53°42' E 005°40'1917.6
2018-Jun-11 01:54N 53°48' E 006°10'1018.5
2018-Jun-11 01:22N 53°50' E 006°27'918.6
2018-Jun-11 00:54N 53°52' E 006°41'2718.6
2018-Jun-10 23:26N 53°59' E 007°26'817.9
2018-Jun-10 23:01N 54°01' E 007°38'814.8
2018-Jun-10 22:30N 53°54' E 007°44'713.8
2018-Jun-10 22:00N 53°52' E 007°55'815.7
2018-Jun-10 21:30N 53°49' E 008°07'816.1
2018-Jun-10 21:00N 53°43' E 008°17'815.3
2018-Jun-10 20:30N 53°38' E 008°27'5 9.7
2018-Jun-10 20:00N 53°34' E 008°32'1 1.0
2018-Jun-10 19:30N 53°34' E 008°33'0 0.8
2018-Jun-10 19:00N 53°35' E 008°33'0 0.1
2018-Jun-10 18:30N 53°35' E 008°33'0 0.0
2018-Jun-10 18:00N 53°35' E 008°33'0 0.0
2018-Jun-10 17:30N 53°35' E 008°33'0 0.0
2018-Jun-10 17:00N 53°35' E 008°33'0 0.0
2018-Jun-10 16:30N 53°35' E 008°33'0 0.0
2018-Jun-10 16:00N 53°35' E 008°33'0 0.0
2018-Jun-10 15:30N 53°35' E 008°33'0 0.0
2018-Jun-10 15:00N 53°35' E 008°33'0 0.0
2018-Jun-10 14:30N 53°35' E 008°33'0 0.0
2018-Jun-10 13:30N 53°35' E 008°33'0 0.0
2018-Jun-10 13:00N 53°35' E 008°33'0 0.0
2018-Jun-10 12:30N 53°35' E 008°33'0 0.0
2018-Jun-10 12:00N 53°35' E 008°33'0 0.0
2018-Jun-10 11:30N 53°35' E 008°33'0 0.0
2018-Jun-10 11:00N 53°35' E 008°33'0 0.0
2018-Jun-10 10:30N 53°35' E 008°33'0 0.0
2018-Jun-10 10:00N 53°35' E 008°33'0 0.0
2018-Jun-10 09:30N 53°35' E 008°33'0 0.0
2018-Jun-10 09:00N 53°35' E 008°33'0 0.0
2018-Jun-10 08:30N 53°35' E 008°33'0 0.0
2018-Jun-10 08:00N 53°35' E 008°33'0 0.0
2018-Jun-10 07:30N 53°35' E 008°33'0 0.0
2018-Jun-10 07:00N 53°35' E 008°33'0 0.0
2018-Jun-10 06:30N 53°35' E 008°33'0 0.0
2018-Jun-10 06:00N 53°35' E 008°33'0 0.0
2018-Jun-10 05:29N 53°35' E 008°33'0 0.0
2018-Jun-10 04:59N 53°35' E 008°33'0 0.0
2018-Jun-10 04:29N 53°35' E 008°33'0 0.0
2018-Jun-10 04:00N 53°35' E 008°33'0 0.0
2018-Jun-10 03:29N 53°35' E 008°33'0 0.0
2018-Jun-10 02:59N 53°35' E 008°33'0 0.0
2018-Jun-10 02:29N 53°35' E 008°33'0 0.0
2018-Jun-10 01:59N 53°35' E 008°33'0 0.0
2018-Jun-10 01:29N 53°35' E 008°33'0 0.0
2018-Jun-10 00:59N 53°35' E 008°33'0 0.0
2018-Jun-10 00:29N 53°35' E 008°33'0 0.0
2018-Jun-09 23:59N 53°35' E 008°33'0 0.0
2018-Jun-09 23:29N 53°35' E 008°33'0 0.0
2018-Jun-09 22:59N 53°35' E 008°33'0 0.0
2018-Jun-09 22:29N 53°35' E 008°33'0 0.0
2018-Jun-09 21:59N 53°35' E 008°33'0 0.0
2018-Jun-09 21:29N 53°35' E 008°33'0 0.0
2018-Jun-09 20:59N 53°35' E 008°33'0 0.0
2018-Jun-09 20:29N 53°35' E 008°33'0 0.0
2018-Jun-09 19:59N 53°35' E 008°33'0 0.0
2018-Jun-09 19:29N 53°35' E 008°33'0 0.0
2018-Jun-09 18:59N 53°35' E 008°33'0 0.0
2018-Jun-09 18:29N 53°35' E 008°33'0 0.0
2018-Jun-09 17:59N 53°35' E 008°33'0 0.0
2018-Jun-09 17:29N 53°35' E 008°33'0 0.0
2018-Jun-09 16:59N 53°35' E 008°33'0 0.0
2018-Jun-09 16:29N 53°35' E 008°33'0 0.0
2018-Jun-09 15:59N 53°35' E 008°33'0 0.0
2018-Jun-09 14:59N 53°35' E 008°33'0 0.0
2018-Jun-09 14:29N 53°35' E 008°33'0 0.0
2018-Jun-09 13:59N 53°35' E 008°33'0 0.0
2018-Jun-09 13:29N 53°35' E 008°33'0 0.0
2018-Jun-09 12:59N 53°35' E 008°33'0 0.0
2018-Jun-09 12:29N 53°35' E 008°33'0 0.0
2018-Jun-09 11:59N 53°35' E 008°33'0 0.0
2018-Jun-09 11:29N 53°35' E 008°33'0 0.0
2018-Jun-09 10:59N 53°35' E 008°33'0 0.0
2018-Jun-09 10:29N 53°35' E 008°33'0 0.0
2018-Jun-09 09:59N 53°35' E 008°33'0 0.0
2018-Jun-09 09:29N 53°35' E 008°33'0 0.0
2018-Jun-09 08:59N 53°35' E 008°33'0 0.0
2018-Jun-09 08:29N 53°35' E 008°33'0 0.0
2018-Jun-09 07:59N 53°35' E 008°33'  
Track history (hours):
 
Tides and Currents Weather Stations Pressure Air Temp Water Temp Dewpoint Dewpoint Depression Visibility Wind Speed Wind Dir Waves Ship Positions

Don Pasquale

Last reported at 2018-Jun-19 07:37 UTC. Time now 2018-Jun-22 11:06 UTC.
Position N 36°43' E 000°53'.

Length 227 m; draft 9.8 m.

Type: Cargo ship. MMSI: 566654000.

Date/timePositionNaut miles runAvg speedWind from/ knotsBaromVisibWave heightAir tempDewpointWater temp
2018-Jun-19 07:37N 36°43' E 000°53'316.1
2018-Jun-19 07:27N 36°43' E 000°50'816.3
2018-Jun-19 06:58N 36°42' E 000°40'1216.4
2018-Jun-19 06:15N 36°40' E 000°26'4515.6
2018-Jun-19 03:22N 36°33' W 000°30'715.9
2018-Jun-19 02:55N 36°32' W 000°39'716.1
2018-Jun-19 02:29N 36°32' W 000°47'1216.0
2018-Jun-19 01:46N 36°30' W 001°02'816.1
2018-Jun-19 01:15N 36°29' W 001°12'19616.9
2018-Jun-18 13:42N 35°60' W 005°11'417.6
2018-Jun-18 13:30N 35°59' W 005°16'917.1
2018-Jun-18 13:00N 35°57' W 005°26'10916.5
2018-Jun-18 06:26N 36°12' W 007°39'1016.7
2018-Jun-18 05:49N 36°14' W 007°52'516.7
2018-Jun-18 05:30N 36°15' W 007°58'816.6
2018-Jun-18 05:00N 36°18' W 008°08'816.8
2018-Jun-18 04:30N 36°21' W 008°18'817.2
2018-Jun-18 04:00N 36°23' W 008°28'917.5
2018-Jun-18 03:30N 36°25' W 008°39'917.4
2018-Jun-18 02:59N 36°27' W 008°49'817.2
2018-Jun-18 02:30N 36°29' W 008°59'917.3
2018-Jun-18 02:00N 36°31' W 009°10'1616.8
2018-Jun-18 01:03N 36°40' W 009°26'117.7
2018-Jun-18 01:00N 36°41' W 009°27'1017.4
2018-Jun-18 00:26N 36°49' W 009°34'817.9
2018-Jun-18 00:00N 36°56' W 009°37'1017.7
2018-Jun-17 23:26N 37°06' W 009°40'817.9
2018-Jun-17 23:00N 37°13' W 009°42'917.6
2018-Jun-17 22:30N 37°22' W 009°44'917.6
2018-Jun-17 22:00N 37°31' W 009°46'917.5
2018-Jun-17 21:30N 37°39' W 009°49'917.6
2018-Jun-17 21:00N 37°48' W 009°51'917.4
2018-Jun-17 20:30N 37°56' W 009°53'917.5
2018-Jun-17 20:01N 38°05' W 009°55'917.3
2018-Jun-17 19:30N 38°13' W 009°58'917.5
2018-Jun-17 19:00N 38°22' W 010°00'917.4
2018-Jun-17 18:30N 38°30' W 010°03'917.6
2018-Jun-17 18:00N 38°39' W 010°05'917.5
2018-Jun-17 17:30N 38°48' W 010°06'917.5
2018-Jun-17 17:00N 38°56' W 010°06'917.2
2018-Jun-17 16:30N 39°05' W 010°06'917.3
2018-Jun-17 16:00N 39°14' W 010°06'917.8
2018-Jun-17 15:30N 39°23' W 010°06'917.5
2018-Jun-17 15:00N 39°31' W 010°06'3017.5
2018-Jun-17 13:17N 40°01' W 010°06'517.7
2018-Jun-17 13:00N 40°06' W 010°06'57316.9
2018-Jun-16 03:11N 49°03' W 005°25'1914.7
2018-Jun-16 01:53N 49°13' W 005°00'5817.9
2018-Jun-15 22:39N 49°41' W 003°43'816.9
2018-Jun-15 22:13N 49°45' W 003°33'416.3
2018-Jun-15 21:59N 49°47' W 003°28'715.6
2018-Jun-15 21:30N 49°51' W 003°18'1614.7
2018-Jun-15 20:24N 49°59' W 002°56'614.5
2018-Jun-15 20:00N 50°01' W 002°48'714.6
2018-Jun-15 19:30N 50°03' W 002°37'1215.1
2018-Jun-15 18:42N 50°07' W 002°19'315.7
2018-Jun-15 18:30N 50°08' W 002°15'816.3
2018-Jun-15 18:00N 50°11' W 002°03'1017.4
2018-Jun-15 17:25N 50°15' W 001°48'818.2
2018-Jun-15 17:00N 50°19' W 001°38'919.0
2018-Jun-15 16:31N 50°23' W 001°24'1019.4
2018-Jun-15 16:00N 50°27' W 001°11'918.2
2018-Jun-15 15:30N 50°33' W 000°60'817.0
2018-Jun-15 15:00N 50°41' W 000°58'611.3
2018-Jun-15 14:30N 50°45' W 001°05'612.9
2018-Jun-15 14:00N 50°46' W 001°15'4 8.9
2018-Jun-15 13:30N 50°50' W 001°19'4 8.4
2018-Jun-15 13:00N 50°53' W 001°24'0 0.4
2018-Jun-15 12:30N 50°53' W 001°24'0 0.0
2018-Jun-15 12:00N 50°53' W 001°24'0 0.0
2018-Jun-15 11:27N 50°53' W 001°24'0 0.0
2018-Jun-15 11:00N 50°53' W 001°24'0 0.0
2018-Jun-15 10:30N 50°53' W 001°24'0 0.0
2018-Jun-15 10:00N 50°53' W 001°24'0 0.0
2018-Jun-15 09:30N 50°53' W 001°24'0 0.0
2018-Jun-15 09:00N 50°53' W 001°24'0 0.0
2018-Jun-15 08:30N 50°53' W 001°24'0 0.0
2018-Jun-15 08:00N 50°53' W 001°24'0 0.0
2018-Jun-15 07:30N 50°53' W 001°24'0 0.0
2018-Jun-15 07:00N 50°53' W 001°24'0 0.0
2018-Jun-15 06:30N 50°53' W 001°24'0 0.0
2018-Jun-15 06:00N 50°53' W 001°24'0 0.0
2018-Jun-15 05:30N 50°53' W 001°24'0 0.0
2018-Jun-15 05:00N 50°53' W 001°24'0 0.0
2018-Jun-15 04:30N 50°53' W 001°24'0 0.0
2018-Jun-15 04:00N 50°53' W 001°24'0 0.0
2018-Jun-15 03:30N 50°53' W 001°24'0 0.0
2018-Jun-15 03:00N 50°53' W 001°24'0 0.0
2018-Jun-15 02:30N 50°53' W 001°24'0 0.0
2018-Jun-15 02:00N 50°53' W 001°24'0 0.0
2018-Jun-15 01:30N 50°53' W 001°24'0 0.0
2018-Jun-15 01:00N 50°53' W 001°24'0 0.0
2018-Jun-15 00:30N 50°53' W 001°24'0 0.0
2018-Jun-15 00:00N 50°53' W 001°24'0 0.0
2018-Jun-14 23:30N 50°53' W 001°24'0 0.0
2018-Jun-14 23:00N 50°53' W 001°24'0 0.0
2018-Jun-14 22:30N 50°53' W 001°24'0 0.0
2018-Jun-14 22:00N 50°53' W 001°24'0 0.0
2018-Jun-14 21:30N 50°53' W 001°24'0 0.0
2018-Jun-14 21:00N 50°53' W 001°24'0 0.0
2018-Jun-14 20:30N 50°53' W 001°24'0 0.0
2018-Jun-14 19:57N 50°53' W 001°24'0 0.0
2018-Jun-14 19:30N 50°53' W 001°24'0 0.0
2018-Jun-14 19:00N 50°53' W 001°24'0 0.0
2018-Jun-14 18:30N 50°53' W 001°24'0 0.0
2018-Jun-14 18:00N 50°53' W 001°24'0 0.0
2018-Jun-14 17:30N 50°53' W 001°24'0 0.0
2018-Jun-14 17:00N 50°53' W 001°24'0 0.0
2018-Jun-14 16:30N 50°53' W 001°24'0 0.0
2018-Jun-14 16:00N 50°53' W 001°24'0 0.0
2018-Jun-14 15:30N 50°53' W 001°24'0 0.0
2018-Jun-14 15:00N 50°53' W 001°24'0 0.0
2018-Jun-14 14:30N 50°53' W 001°24'0 0.0
2018-Jun-14 13:59N 50°53' W 001°24'0 0.0
2018-Jun-14 13:29N 50°53' W 001°24'0 0.0
2018-Jun-14 12:59N 50°53' W 001°24'0 0.0
2018-Jun-14 12:29N 50°53' W 001°24'0 0.0
2018-Jun-14 11:59N 50°53' W 001°24'0 0.0
2018-Jun-14 11:29N 50°53' W 001°24'0 0.0
2018-Jun-14 10:59N 50°53' W 001°24'0 0.0
2018-Jun-14 10:29N 50°53' W 001°24'0 0.0
2018-Jun-14 09:59N 50°53' W 001°24'0 0.0
2018-Jun-14 09:29N 50°53' W 001°24'0 0.0
2018-Jun-14 08:59N 50°53' W 001°24'0 0.0
2018-Jun-14 08:29N 50°53' W 001°24'0 0.0
2018-Jun-14 07:59N 50°53' W 001°24'0 0.0
2018-Jun-14 07:29N 50°53' W 001°24'0 0.0
2018-Jun-14 06:59N 50°53' W 001°24'0 0.0
2018-Jun-14 06:29N 50°53' W 001°24'0 0.0
2018-Jun-14 05:59N 50°53' W 001°24'0 0.0
2018-Jun-14 05:29N 50°53' W 001°24'0 0.0
2018-Jun-14 04:59N 50°53' W 001°24'0 0.0
2018-Jun-14 04:29N 50°53' W 001°24'0 0.0
2018-Jun-14 03:59N 50°53' W 001°24'0 0.0
2018-Jun-14 03:29N 50°53' W 001°24'0 0.0
2018-Jun-14 02:59N 50°53' W 001°24'0 0.0
2018-Jun-14 02:30N 50°53' W 001°24'1 1.9
2018-Jun-14 02:00N 50°52' W 001°23'4 8.3
2018-Jun-14 01:30N 50°49' W 001°18'3 6.4
2018-Jun-14 01:00N 50°47' W 001°15'5 9.6
2018-Jun-14 00:30N 50°46' W 001°08'510.8
2018-Jun-14 00:00N 50°43' W 001°00'4 9.0
2018-Jun-13 23:30N 50°39' W 000°56'4 7.7
2018-Jun-13 23:00N 50°35' W 000°58'4 8.4
2018-Jun-13 22:31N 50°31' W 000°60'2 4.3
2018-Jun-13 22:00N 50°29' W 001°01'0 0.6
2018-Jun-13 21:31N 50°29' W 001°00'2 4.4
2018-Jun-13 20:58N 50°29' W 000°56'1 3.3
2018-Jun-13 20:30N 50°29' W 000°59'1 1.3
2018-Jun-13 20:01N 50°30' W 000°59'2 4.2
2018-Jun-13 19:30N 50°30' W 000°56'2 3.5
2018-Jun-13 19:00N 50°30' W 000°59'1 2.7
2018-Jun-13 18:30N 50°29' W 001°01'1 1.8
2018-Jun-13 18:00N 50°30' W 000°60'1 2.1
2018-Jun-13 17:30N 50°30' W 000°58'1 2.4
2018-Jun-13 17:00N 50°30' W 001°00'1 1.5
2018-Jun-13 16:30N 50°30' W 001°01'0 0.6
2018-Jun-13 16:00N 50°29' W 001°01'0 0.3
2018-Jun-13 15:30N 50°29' W 001°01'0 0.5
2018-Jun-13 15:00N 50°29' W 001°01'2 4.6
2018-Jun-13 14:30N 50°30' W 000°57'814.8
2018-Jun-13 14:00N 50°30' W 000°45'917.5
2018-Jun-13 13:30N 50°31' W 000°32'917.3
2018-Jun-13 13:00N 50°32' W 000°19'816.8
2018-Jun-13 12:30N 50°33' W 000°05'816.3
2018-Jun-13 12:01N 50°34' E 000°07'815.9
2018-Jun-13 11:30N 50°36' E 000°20'815.5
2018-Jun-13 11:00N 50°38' E 000°31'714.9
2018-Jun-13 10:30N 50°41' E 000°42'714.5
2018-Jun-13 10:00N 50°45' E 000°51'714.5
2018-Jun-13 09:30N 50°50' E 001°00'714.8
2018-Jun-13 09:00N 50°55' E 001°09'815.4
2018-Jun-13 08:30N 51°00' E 001°18'817.0
2018-Jun-13 08:00N 51°05' E 001°29'918.3
2018-Jun-13 07:30N 51°10' E 001°41'918.4
2018-Jun-13 07:00N 51°17' E 001°50'917.7
2018-Jun-13 06:30N 51°24' E 001°59'815.1
2018-Jun-13 06:00N 51°22' E 002°11'815.5
2018-Jun-13 05:30N 51°22' E 002°23'916.6
2018-Jun-13 05:00N 51°23' E 002°37'713.7
2018-Jun-13 04:30N 51°22' E 002°47'816.6
2018-Jun-13 04:01N 51°24' E 003°00'917.1
2018-Jun-13 03:31N 51°25' E 003°14'917.7
2018-Jun-13 03:00N 51°25' E 003°28'612.2
2018-Jun-13 02:31N 51°26' E 003°38'612.5
2018-Jun-13 02:00N 51°22' E 003°45'714.0
2018-Jun-13 01:30N 51°23' E 003°56'4 8.3
2018-Jun-13 01:00N 51°25' E 004°02'5 9.5
2018-Jun-13 00:31N 51°23' E 004°09'4 7.9
2018-Jun-13 00:01N 51°21' E 004°15'3 6.3
2018-Jun-12 23:31N 51°18' E 004°17'2 4.6
2018-Jun-12 23:00N 51°16' E 004°18'1 1.0
2018-Jun-12 22:30N 51°16' E 004°17'0 0.0
2018-Jun-12 22:00N 51°16' E 004°17'1 2.2
2018-Jun-12 21:30N 51°16' E 004°15'1 2.2
2018-Jun-12 20:59N 51°16' E 004°13'0 0.0
2018-Jun-12 20:29N 51°16' E 004°13'0 0.0
2018-Jun-12 19:59N 51°16' E 004°13'0 0.0
2018-Jun-12 19:29N 51°16' E 004°13'0 0.0
2018-Jun-12 18:59N 51°16' E 004°13'0 0.0
2018-Jun-12 18:29N 51°16' E 004°13'0 0.0
2018-Jun-12 17:59N 51°16' E 004°13'0 0.0
2018-Jun-12 17:29N 51°16' E 004°13'0 0.0
2018-Jun-12 16:59N 51°16' E 004°13'0 0.0
2018-Jun-12 16:29N 51°16' E 004°13'0 0.0
2018-Jun-12 15:59N 51°16' E 004°13'0 0.0
2018-Jun-12 15:29N 51°16' E 004°13'0 0.0
2018-Jun-12 14:56N 51°16' E 004°13'0 0.0
2018-Jun-12 14:29N 51°16' E 004°13'0 0.0
2018-Jun-12 13:59N 51°16' E 004°13'0 0.0
2018-Jun-12 13:29N 51°16' E 004°13'0 0.0
2018-Jun-12 12:59N 51°16' E 004°13'0 0.0
2018-Jun-12 12:29N 51°16' E 004°13'0 0.0
2018-Jun-12 11:59N 51°16' E 004°13'0 0.0
2018-Jun-12 11:29N 51°16' E 004°13'0 0.0
2018-Jun-12 10:59N 51°16' E 004°13'0 0.0
2018-Jun-12 10:29N 51°16' E 004°13'0 0.0
2018-Jun-12 09:59N 51°16' E 004°13'0 0.0
2018-Jun-12 09:29N 51°16' E 004°13'0 0.0
2018-Jun-12 08:59N 51°16' E 004°13'0 0.0
2018-Jun-12 08:29N 51°16' E 004°13'0 0.0
2018-Jun-12 07:59N 51°16' E 004°13'0 0.0
2018-Jun-12 07:29N 51°16' E 004°13'0 0.0
2018-Jun-12 06:59N 51°16' E 004°13'0 0.0
2018-Jun-12 06:29N 51°16' E 004°13'0 0.0
2018-Jun-12 05:59N 51°16' E 004°13'0 0.0
2018-Jun-12 05:29N 51°16' E 004°13'0 0.0
2018-Jun-12 04:59N 51°16' E 004°13'0 0.0
2018-Jun-12 04:29N 51°16' E 004°13'0 0.0
2018-Jun-12 03:59N 51°16' E 004°13'0 0.0
2018-Jun-12 03:29N 51°16' E 004°13'0 0.0
2018-Jun-12 02:59N 51°16' E 004°13'0 0.0
2018-Jun-12 02:29N 51°16' E 004°13'0 0.0
2018-Jun-12 01:59N 51°16' E 004°13'0 0.0
2018-Jun-12 01:29N 51°16' E 004°13'0 0.0
2018-Jun-12 00:59N 51°16' E 004°13'0 0.0
2018-Jun-12 00:29N 51°16' E 004°13'0 0.0
2018-Jun-11 23:59N 51°16' E 004°13'0 0.2
2018-Jun-11 23:30N 51°16' E 004°13'2 4.0
2018-Jun-11 23:00N 51°16' E 004°16'0 0.4
2018-Jun-11 22:30N 51°16' E 004°17'1 2.4
2018-Jun-11 22:00N 51°16' E 004°18'3 6.5
2018-Jun-11 21:30N 51°19' E 004°16'5 9.8
2018-Jun-11 21:00N 51°23' E 004°13'611.0
2018-Jun-11 20:30N 51°22' E 004°04'5 9.5
2018-Jun-11 20:00N 51°25' E 003°58'713.3
2018-Jun-11 19:30N 51°21' E 003°50'612.2
2018-Jun-11 19:00N 51°24' E 003°43'5 9.4
2018-Jun-11 18:30N 51°25' E 003°35'510.6
2018-Jun-11 18:00N 51°25' E 003°27'713.0
2018-Jun-11 17:30N 51°25' E 003°16'612.9
2018-Jun-11 17:00N 51°24' E 003°06'610.9
2018-Jun-11 16:30N 51°28' E 003°00'917.4
2018-Jun-11 16:00N 51°35' E 003°09'816.1
2018-Jun-11 15:30N 51°42' E 003°12'510.6
2018-Jun-11 15:00N 51°47' E 003°15'510.0
2018-Jun-11 14:30N 51°52' E 003°18'3 6.9
2018-Jun-11 14:01N 51°55' E 003°19'4 7.2
2018-Jun-11 13:30N 51°59' E 003°20'4 7.1
2018-Jun-11 13:00N 52°03' E 003°21'4 7.7
2018-Jun-11 12:30N 52°06' E 003°25'611.5
2018-Jun-11 12:00N 52°00' E 003°24'2 4.3
2018-Jun-11 11:30N 52°02' E 003°21'713.6
2018-Jun-11 11:00N 52°08' E 003°25'714.9
2018-Jun-11 10:30N 52°15' E 003°27'815.6
2018-Jun-11 10:00N 52°23' E 003°28'816.5
2018-Jun-11 09:30N 52°31' E 003°29'816.3
2018-Jun-11 09:00N 52°39' E 003°33'917.4
2018-Jun-11 08:30N 52°46' E 003°42'917.6
2018-Jun-11 08:00N 52°52' E 003°52'917.6
2018-Jun-11 07:30N 52°59' E 004°01'1017.3
2018-Jun-11 06:56N 53°05' E 004°14'716.7
2018-Jun-11 06:29N 53°11' E 004°22'817.6
2018-Jun-11 06:00N 53°18' E 004°29'917.5
2018-Jun-11 05:28N 53°27' E 004°35'816.6
2018-Jun-11 04:59N 53°30' E 004°47'816.7
2018-Jun-11 04:31N 53°34' E 004°59'816.3
2018-Jun-11 04:01N 53°36' E 005°12'816.4
2018-Jun-11 03:30N 53°39' E 005°26'916.7
2018-Jun-11 02:59N 53°42' E 005°40'1917.6
2018-Jun-11 01:54N 53°48' E 006°10'1018.5
2018-Jun-11 01:22N 53°50' E 006°27'918.6
2018-Jun-11 00:54N 53°52' E 006°41'2718.6
2018-Jun-10 23:26N 53°59' E 007°26'817.9
2018-Jun-10 23:01N 54°01' E 007°38'814.8
2018-Jun-10 22:30N 53°54' E 007°44'713.8
2018-Jun-10 22:00N 53°52' E 007°55'815.7
2018-Jun-10 21:30N 53°49' E 008°07'816.1
2018-Jun-10 21:00N 53°43' E 008°17'815.3
2018-Jun-10 20:30N 53°38' E 008°27'5 9.7
2018-Jun-10 20:00N 53°34' E 008°32'1 1.0
2018-Jun-10 19:30N 53°34' E 008°33'0 0.8
2018-Jun-10 19:00N 53°35' E 008°33'0 0.1
2018-Jun-10 18:30N 53°35' E 008°33'0 0.0
2018-Jun-10 18:00N 53°35' E 008°33'0 0.0
2018-Jun-10 17:30N 53°35' E 008°33'0 0.0
2018-Jun-10 17:00N 53°35' E 008°33'0 0.0
2018-Jun-10 16:30N 53°35' E 008°33'0 0.0
2018-Jun-10 16:00N 53°35' E 008°33'0 0.0
2018-Jun-10 15:30N 53°35' E 008°33'0 0.0
2018-Jun-10 15:00N 53°35' E 008°33'0 0.0
2018-Jun-10 14:30N 53°35' E 008°33'0 0.0
2018-Jun-10 13:30N 53°35' E 008°33'0 0.0
2018-Jun-10 13:00N 53°35' E 008°33'0 0.0
2018-Jun-10 12:30N 53°35' E 008°33'0 0.0
2018-Jun-10 12:00N 53°35' E 008°33'0 0.0
2018-Jun-10 11:30N 53°35' E 008°33'0 0.0
2018-Jun-10 11:00N 53°35' E 008°33'0 0.0
2018-Jun-10 10:30N 53°35' E 008°33'0 0.0
2018-Jun-10 10:00N 53°35' E 008°33'0 0.0
2018-Jun-10 09:30N 53°35' E 008°33'0 0.0
2018-Jun-10 09:00N 53°35' E 008°33'0 0.0
2018-Jun-10 08:30N 53°35' E 008°33'0 0.0
2018-Jun-10 08:00N 53°35' E 008°33'0 0.0
2018-Jun-10 07:30N 53°35' E 008°33'0 0.0
2018-Jun-10 07:00N 53°35' E 008°33'0 0.0
2018-Jun-10 06:30N 53°35' E 008°33'0 0.0
2018-Jun-10 06:00N 53°35' E 008°33'0 0.0
2018-Jun-10 05:29N 53°35' E 008°33'0 0.0
2018-Jun-10 04:59N 53°35' E 008°33'0 0.0
2018-Jun-10 04:29N 53°35' E 008°33'0 0.0
2018-Jun-10 04:00N 53°35' E 008°33'0 0.0
2018-Jun-10 03:29N 53°35' E 008°33'0 0.0
2018-Jun-10 02:59N 53°35' E 008°33'0 0.0
2018-Jun-10 02:29N 53°35' E 008°33'0 0.0
2018-Jun-10 01:59N 53°35' E 008°33'0 0.0
2018-Jun-10 01:29N 53°35' E 008°33'0 0.0
2018-Jun-10 00:59N 53°35' E 008°33'0 0.0
2018-Jun-10 00:29N 53°35' E 008°33'0 0.0
2018-Jun-09 23:59N 53°35' E 008°33'0 0.0
2018-Jun-09 23:29N 53°35' E 008°33'0 0.0
2018-Jun-09 22:59N 53°35' E 008°33'0 0.0
2018-Jun-09 22:29N 53°35' E 008°33'0 0.0
2018-Jun-09 21:59N 53°35' E 008°33'0 0.0
2018-Jun-09 21:29N 53°35' E 008°33'0 0.0
2018-Jun-09 20:59N 53°35' E 008°33'0 0.0
2018-Jun-09 20:29N 53°35' E 008°33'0 0.0
2018-Jun-09 19:59N 53°35' E 008°33'0 0.0
2018-Jun-09 19:29N 53°35' E 008°33'0 0.0
2018-Jun-09 18:59N 53°35' E 008°33'0 0.0
2018-Jun-09 18:29N 53°35' E 008°33'0 0.0
2018-Jun-09 17:59N 53°35' E 008°33'0 0.0
2018-Jun-09 17:29N 53°35' E 008°33'0 0.0
2018-Jun-09 16:59N 53°35' E 008°33'0 0.0
2018-Jun-09 16:29N 53°35' E 008°33'0 0.0
2018-Jun-09 15:59N 53°35' E 008°33'0 0.0
2018-Jun-09 14:59N 53°35' E 008°33'0 0.0
2018-Jun-09 14:29N 53°35' E 008°33'0 0.0
2018-Jun-09 13:59N 53°35' E 008°33'0 0.0
2018-Jun-09 13:29N 53°35' E 008°33'0 0.0
2018-Jun-09 12:59N 53°35' E 008°33'0 0.0
2018-Jun-09 12:29N 53°35' E 008°33'0 0.0
2018-Jun-09 11:59N 53°35' E 008°33'0 0.0
2018-Jun-09 11:29N 53°35' E 008°33'0 0.0
2018-Jun-09 10:59N 53°35' E 008°33'0 0.0
2018-Jun-09 10:29N 53°35' E 008°33'0 0.0
2018-Jun-09 09:59N 53°35' E 008°33'0 0.0
2018-Jun-09 09:29N 53°35' E 008°33'0 0.0
2018-Jun-09 08:59N 53°35' E 008°33'0 0.0
2018-Jun-09 08:29N 53°35' E 008°33'0 0.0
2018-Jun-09 07:59N 53°35' E 008°33'  

Dump ship's entire track history